sensor_id;sensor_type;location;lat;lon;timestamp;P1;durP1;ratioP1;P2;durP2;ratioP2
2049;SDS011;8478;49.208;8.806;2022-09-12T00:01:22;5.73;;;5.33;;
2049;SDS011;8478;49.208;8.806;2022-09-12T00:03:56;6.30;;;5.93;;
2049;SDS011;8478;49.208;8.806;2022-09-12T00:06:32;6.70;;;6.20;;
2049;SDS011;8478;49.208;8.806;2022-09-12T00:09:00;7.50;;;6.80;;
2049;SDS011;8478;49.208;8.806;2022-09-12T00:11:38;7.20;;;6.60;;
2049;SDS011;8478;49.208;8.806;2022-09-12T00:14:05;6.53;;;5.93;;
2049;SDS011;8478;49.208;8.806;2022-09-12T00:16:33;6.50;;;6.00;;
2049;SDS011;8478;49.208;8.806;2022-09-12T00:19:00;6.67;;;6.17;;
2049;SDS011;8478;49.208;8.806;2022-09-12T00:21:28;6.13;;;5.73;;
2049;SDS011;8478;49.208;8.806;2022-09-12T00:23:54;6.50;;;6.10;;
2049;SDS011;8478;49.208;8.806;2022-09-12T00:26:20;6.90;;;6.40;;
2049;SDS011;8478;49.208;8.806;2022-09-12T00:28:46;6.70;;;6.20;;
2049;SDS011;8478;49.208;8.806;2022-09-12T00:31:13;6.53;;;6.10;;
2049;SDS011;8478;49.208;8.806;2022-09-12T00:33:41;7.60;;;7.00;;
2049;SDS011;8478;49.208;8.806;2022-09-12T00:36:14;7.40;;;6.53;;
2049;SDS011;8478;49.208;8.806;2022-09-12T00:38:42;6.90;;;6.40;;
2049;SDS011;8478;49.208;8.806;2022-09-12T00:41:14;7.30;;;6.73;;
2049;SDS011;8478;49.208;8.806;2022-09-12T00:43:45;6.50;;;6.00;;
2049;SDS011;8478;49.208;8.806;2022-09-12T00:49:12;6.53;;;6.03;;
2049;SDS011;8478;49.208;8.806;2022-09-12T00:51:43;6.47;;;5.97;;
2049;SDS011;8478;49.208;8.806;2022-09-12T00:54:14;6.70;;;6.20;;
2049;SDS011;8478;49.208;8.806;2022-09-12T00:56:44;7.10;;;6.50;;
2049;SDS011;8478;49.208;8.806;2022-09-12T00:59:14;7.00;;;6.40;;
2049;SDS011;8478;49.208;8.806;2022-09-12T01:01:44;6.47;;;5.87;;
2049;SDS011;8478;49.208;8.806;2022-09-12T01:04:12;7.33;;;6.73;;
2049;SDS011;8478;49.208;8.806;2022-09-12T01:06:39;6.50;;;6.00;;
2049;SDS011;8478;49.208;8.806;2022-09-12T01:09:07;6.67;;;6.20;;
2049;SDS011;8478;49.208;8.806;2022-09-12T01:11:37;6.70;;;6.17;;
2049;SDS011;8478;49.208;8.806;2022-09-12T01:14:05;6.77;;;6.27;;
2049;SDS011;8478;49.208;8.806;2022-09-12T01:16:33;7.30;;;6.70;;
2049;SDS011;8478;49.208;8.806;2022-09-12T01:30:22;7.73;;;7.03;;
2049;SDS011;8478;49.208;8.806;2022-09-12T01:41:30;7.40;;;6.90;;
2049;SDS011;8478;49.208;8.806;2022-09-12T01:44:03;7.47;;;6.80;;
2049;SDS011;8478;49.208;8.806;2022-09-12T01:49:07;6.63;;;6.17;;
2049;SDS011;8478;49.208;8.806;2022-09-12T01:51:50;6.60;;;6.10;;
2049;SDS011;8478;49.208;8.806;2022-09-12T01:57:23;8.03;;;7.33;;
2049;SDS011;8478;49.208;8.806;2022-09-12T01:59:55;7.97;;;7.37;;
2049;SDS011;8478;49.208;8.806;2022-09-12T02:02:35;7.27;;;6.67;;
2049;SDS011;8478;49.208;8.806;2022-09-12T02:05:06;6.80;;;6.30;;
2049;SDS011;8478;49.208;8.806;2022-09-12T02:07:39;7.35;;;6.75;;
2049;SDS011;8478;49.208;8.806;2022-09-12T02:10:17;8.57;;;7.87;;
2049;SDS011;8478;49.208;8.806;2022-09-12T02:12:55;8.10;;;7.40;;
2049;SDS011;8478;49.208;8.806;2022-09-12T02:15:39;6.90;;;6.30;;
2049;SDS011;8478;49.208;8.806;2022-09-12T02:18:12;7.57;;;6.87;;
2049;SDS011;8478;49.208;8.806;2022-09-12T02:20:42;6.90;;;6.23;;
2049;SDS011;8478;49.208;8.806;2022-09-12T02:23:11;7.57;;;6.87;;
2049;SDS011;8478;49.208;8.806;2022-09-12T02:25:45;9.10;;;8.40;;
2049;SDS011;8478;49.208;8.806;2022-09-12T02:28:20;7.73;;;7.20;;
2049;SDS011;8478;49.208;8.806;2022-09-12T02:36:30;7.60;;;6.97;;
2049;SDS011;8478;49.208;8.806;2022-09-12T02:39:09;8.13;;;7.53;;
2049;SDS011;8478;49.208;8.806;2022-09-12T02:41:34;7.27;;;6.67;;
2049;SDS011;8478;49.208;8.806;2022-09-12T02:44:00;8.13;;;7.37;;
2049;SDS011;8478;49.208;8.806;2022-09-12T02:46:32;7.60;;;6.90;;
2049;SDS011;8478;49.208;8.806;2022-09-12T02:49:03;7.70;;;7.10;;
2049;SDS011;8478;49.208;8.806;2022-09-12T02:51:29;9.00;;;8.30;;
2049;SDS011;8478;49.208;8.806;2022-09-12T02:53:54;7.20;;;6.57;;
2049;SDS011;8478;49.208;8.806;2022-09-12T02:56:26;8.53;;;7.73;;
2049;SDS011;8478;49.208;8.806;2022-09-12T02:58:53;8.00;;;7.40;;
2049;SDS011;8478;49.208;8.806;2022-09-12T03:09:57;8.00;;;7.30;;
2049;SDS011;8478;49.208;8.806;2022-09-12T03:26:29;7.70;;;7.10;;
2049;SDS011;8478;49.208;8.806;2022-09-12T03:29:02;8.53;;;7.83;;
2049;SDS011;8478;49.208;8.806;2022-09-12T03:31:30;7.40;;;6.90;;
2049;SDS011;8478;49.208;8.806;2022-09-12T03:33:58;7.57;;;6.97;;
2049;SDS011;8478;49.208;8.806;2022-09-12T03:36:25;7.70;;;7.10;;
2049;SDS011;8478;49.208;8.806;2022-09-12T03:38:52;8.23;;;7.43;;
2049;SDS011;8478;49.208;8.806;2022-09-12T03:41:18;9.30;;;8.40;;
2049;SDS011;8478;49.208;8.806;2022-09-12T03:43:45;8.50;;;7.80;;
2049;SDS011;8478;49.208;8.806;2022-09-12T03:46:11;8.53;;;7.73;;
2049;SDS011;8478;49.208;8.806;2022-09-12T03:48:38;7.80;;;7.20;;
2049;SDS011;8478;49.208;8.806;2022-09-12T03:51:05;7.70;;;7.10;;
2049;SDS011;8478;49.208;8.806;2022-09-12T03:53:34;8.63;;;7.93;;
2049;SDS011;8478;49.208;8.806;2022-09-12T03:55:59;7.00;;;6.50;;
2049;SDS011;8478;49.208;8.806;2022-09-12T03:58:33;7.93;;;7.33;;
2049;SDS011;8478;49.208;8.806;2022-09-12T04:01:04;7.87;;;7.27;;
2049;SDS011;8478;49.208;8.806;2022-09-12T04:03:38;7.70;;;7.10;;
2049;SDS011;8478;49.208;8.806;2022-09-12T04:06:05;7.37;;;6.83;;
2049;SDS011;8478;49.208;8.806;2022-09-12T04:08:33;8.13;;;7.47;;
2049;SDS011;8478;49.208;8.806;2022-09-12T04:11:06;8.23;;;7.63;;
2049;SDS011;8478;49.208;8.806;2022-09-12T04:13:34;8.90;;;8.10;;
2049;SDS011;8478;49.208;8.806;2022-09-12T04:16:00;8.00;;;7.40;;
2049;SDS011;8478;49.208;8.806;2022-09-12T04:18:26;8.83;;;8.20;;
2049;SDS011;8478;49.208;8.806;2022-09-12T04:20:52;8.60;;;7.93;;
2049;SDS011;8478;49.208;8.806;2022-09-12T04:23:18;8.80;;;8.03;;
2049;SDS011;8478;49.208;8.806;2022-09-12T04:25:44;9.40;;;8.60;;
2049;SDS011;8478;49.208;8.806;2022-09-12T04:28:16;8.13;;;7.53;;
2049;SDS011;8478;49.208;8.806;2022-09-12T04:30:42;8.80;;;8.07;;
2049;SDS011;8478;49.208;8.806;2022-09-12T04:33:08;8.63;;;7.93;;
2049;SDS011;8478;49.208;8.806;2022-09-12T04:35:34;9.23;;;8.43;;
2049;SDS011;8478;49.208;8.806;2022-09-12T04:38:00;9.20;;;8.50;;
2049;SDS011;8478;49.208;8.806;2022-09-12T04:40:27;8.47;;;7.87;;
2049;SDS011;8478;49.208;8.806;2022-09-12T04:42:53;8.27;;;7.60;;
2049;SDS011;8478;49.208;8.806;2022-09-12T04:45:20;8.33;;;7.73;;
2049;SDS011;8478;49.208;8.806;2022-09-12T04:47:46;7.90;;;7.20;;
2049;SDS011;8478;49.208;8.806;2022-09-12T04:50:12;8.90;;;8.20;;
2049;SDS011;8478;49.208;8.806;2022-09-12T04:52:39;8.57;;;7.97;;
2049;SDS011;8478;49.208;8.806;2022-09-12T04:55:05;9.27;;;8.47;;
2049;SDS011;8478;49.208;8.806;2022-09-12T04:57:32;8.63;;;7.97;;
2049;SDS011;8478;49.208;8.806;2022-09-12T04:59:57;7.50;;;7.00;;
2049;SDS011;8478;49.208;8.806;2022-09-12T05:02:24;8.80;;;8.10;;
2049;SDS011;8478;49.208;8.806;2022-09-12T05:04:50;8.80;;;8.10;;
2049;SDS011;8478;49.208;8.806;2022-09-12T05:07:16;8.60;;;8.00;;
2049;SDS011;8478;49.208;8.806;2022-09-12T05:09:43;8.23;;;7.63;;
2049;SDS011;8478;49.208;8.806;2022-09-12T05:12:09;9.00;;;8.20;;
2049;SDS011;8478;49.208;8.806;2022-09-12T05:14:35;8.13;;;7.53;;
2049;SDS011;8478;49.208;8.806;2022-09-12T05:17:00;9.57;;;8.80;;
2049;SDS011;8478;49.208;8.806;2022-09-12T05:19:27;8.30;;;7.63;;
2049;SDS011;8478;49.208;8.806;2022-09-12T05:21:54;8.10;;;7.50;;
2049;SDS011;8478;49.208;8.806;2022-09-12T05:24:20;9.33;;;8.50;;
2049;SDS011;8478;49.208;8.806;2022-09-12T05:26:46;8.27;;;7.67;;
2049;SDS011;8478;49.208;8.806;2022-09-12T05:29:11;8.37;;;7.67;;
2049;SDS011;8478;49.208;8.806;2022-09-12T05:31:37;9.17;;;8.37;;
2049;SDS011;8478;49.208;8.806;2022-09-12T05:34:03;9.67;;;8.77;;
2049;SDS011;8478;49.208;8.806;2022-09-12T05:36:31;9.70;;;8.80;;
2049;SDS011;8478;49.208;8.806;2022-09-12T05:38:58;8.50;;;7.80;;
2049;SDS011;8478;49.208;8.806;2022-09-12T05:41:25;9.00;;;8.20;;
2049;SDS011;8478;49.208;8.806;2022-09-12T05:43:54;8.70;;;8.00;;
2049;SDS011;8478;49.208;8.806;2022-09-12T05:46:25;8.77;;;8.07;;
2049;SDS011;8478;49.208;8.806;2022-09-12T05:48:52;8.97;;;8.30;;
2049;SDS011;8478;49.208;8.806;2022-09-12T05:51:26;9.97;;;9.07;;
2049;SDS011;8478;49.208;8.806;2022-09-12T05:53:53;8.87;;;8.17;;
2049;SDS011;8478;49.208;8.806;2022-09-12T05:56:21;9.10;;;8.30;;
2049;SDS011;8478;49.208;8.806;2022-09-12T05:58:53;9.30;;;8.60;;
2049;SDS011;8478;49.208;8.806;2022-09-12T06:01:20;9.13;;;8.33;;
2049;SDS011;8478;49.208;8.806;2022-09-12T06:03:50;8.73;;;8.10;;
2049;SDS011;8478;49.208;8.806;2022-09-12T06:06:18;8.50;;;7.80;;
2049;SDS011;8478;49.208;8.806;2022-09-12T06:08:46;9.47;;;8.67;;
2049;SDS011;8478;49.208;8.806;2022-09-12T06:11:13;8.23;;;7.53;;
2049;SDS011;8478;49.208;8.806;2022-09-12T06:13:43;9.10;;;8.27;;
2049;SDS011;8478;49.208;8.806;2022-09-12T06:16:13;8.60;;;7.90;;
2049;SDS011;8478;49.208;8.806;2022-09-12T06:18:50;8.73;;;8.03;;
2049;SDS011;8478;49.208;8.806;2022-09-12T06:21:18;9.27;;;8.47;;
2049;SDS011;8478;49.208;8.806;2022-09-12T06:23:45;10.70;;;9.70;;
2049;SDS011;8478;49.208;8.806;2022-09-12T06:26:12;10.10;;;9.17;;
2049;SDS011;8478;49.208;8.806;2022-09-12T06:28:40;8.40;;;7.60;;
2049;SDS011;8478;49.208;8.806;2022-09-12T06:31:19;9.40;;;8.60;;
2049;SDS011;8478;49.208;8.806;2022-09-12T06:33:48;9.07;;;8.37;;
2049;SDS011;8478;49.208;8.806;2022-09-12T06:36:19;8.67;;;7.90;;
2049;SDS011;8478;49.208;8.806;2022-09-12T06:38:53;9.53;;;8.73;;
2049;SDS011;8478;49.208;8.806;2022-09-12T06:41:29;9.10;;;8.30;;
2049;SDS011;8478;49.208;8.806;2022-09-12T06:43:56;8.67;;;8.07;;
2049;SDS011;8478;49.208;8.806;2022-09-12T06:46:23;8.80;;;7.90;;
2049;SDS011;8478;49.208;8.806;2022-09-12T06:48:49;8.63;;;7.83;;
2049;SDS011;8478;49.208;8.806;2022-09-12T06:51:16;8.83;;;8.17;;
2049;SDS011;8478;49.208;8.806;2022-09-12T06:53:44;8.40;;;7.70;;
2049;SDS011;8478;49.208;8.806;2022-09-12T06:56:11;9.13;;;8.43;;
2049;SDS011;8478;49.208;8.806;2022-09-12T06:58:39;9.00;;;8.30;;
2049;SDS011;8478;49.208;8.806;2022-09-12T07:01:10;9.10;;;8.27;;
2049;SDS011;8478;49.208;8.806;2022-09-12T07:03:39;8.73;;;8.03;;
2049;SDS011;8478;49.208;8.806;2022-09-12T07:06:09;7.60;;;7.10;;
2049;SDS011;8478;49.208;8.806;2022-09-12T07:08:36;7.40;;;6.80;;
2049;SDS011;8478;49.208;8.806;2022-09-12T07:11:13;7.50;;;6.97;;
2049;SDS011;8478;49.208;8.806;2022-09-12T07:13:40;7.63;;;6.93;;
2049;SDS011;8478;49.208;8.806;2022-09-12T07:16:07;6.77;;;6.17;;
2049;SDS011;8478;49.208;8.806;2022-09-12T07:18:34;9.07;;;8.37;;
2049;SDS011;8478;49.208;8.806;2022-09-12T07:21:02;8.97;;;8.17;;
2049;SDS011;8478;49.208;8.806;2022-09-12T07:23:30;8.17;;;7.57;;
2049;SDS011;8478;49.208;8.806;2022-09-12T07:25:56;8.43;;;7.73;;
2049;SDS011;8478;49.208;8.806;2022-09-12T07:28:23;9.47;;;8.67;;
2049;SDS011;8478;49.208;8.806;2022-09-12T07:30:54;8.17;;;7.50;;
2049;SDS011;8478;49.208;8.806;2022-09-12T07:33:24;8.47;;;7.67;;
2049;SDS011;8478;49.208;8.806;2022-09-12T07:35:52;8.00;;;7.40;;
2049;SDS011;8478;49.208;8.806;2022-09-12T07:38:18;7.80;;;7.30;;
2049;SDS011;8478;49.208;8.806;2022-09-12T07:40:44;7.60;;;7.00;;
2049;SDS011;8478;49.208;8.806;2022-09-12T07:43:10;8.13;;;7.50;;
2049;SDS011;8478;49.208;8.806;2022-09-12T07:45:36;8.97;;;8.27;;
2049;SDS011;8478;49.208;8.806;2022-09-12T07:48:05;8.27;;;7.67;;
2049;SDS011;8478;49.208;8.806;2022-09-12T07:50:30;8.43;;;7.83;;
2049;SDS011;8478;49.208;8.806;2022-09-12T07:52:57;9.30;;;8.30;;
2049;SDS011;8478;49.208;8.806;2022-09-12T07:55:23;7.73;;;7.23;;
2049;SDS011;8478;49.208;8.806;2022-09-12T07:57:49;8.03;;;7.40;;
2049;SDS011;8478;49.208;8.806;2022-09-12T08:00:15;8.10;;;7.50;;
2049;SDS011;8478;49.208;8.806;2022-09-12T08:02:41;8.10;;;7.50;;
2049;SDS011;8478;49.208;8.806;2022-09-12T08:05:07;8.57;;;7.97;;
2049;SDS011;8478;49.208;8.806;2022-09-12T08:07:33;7.60;;;7.00;;
2049;SDS011;8478;49.208;8.806;2022-09-12T08:09:59;8.10;;;7.53;;
2049;SDS011;8478;49.208;8.806;2022-09-12T08:12:28;8.50;;;7.90;;
2049;SDS011;8478;49.208;8.806;2022-09-12T08:14:56;7.80;;;7.20;;
2049;SDS011;8478;49.208;8.806;2022-09-12T08:17:22;7.83;;;7.23;;
2049;SDS011;8478;49.208;8.806;2022-09-12T08:19:47;8.37;;;7.67;;
2049;SDS011;8478;49.208;8.806;2022-09-12T08:22:13;7.50;;;6.90;;
2049;SDS011;8478;49.208;8.806;2022-09-12T08:24:39;7.70;;;7.20;;
2049;SDS011;8478;49.208;8.806;2022-09-12T08:27:05;8.20;;;7.60;;
2049;SDS011;8478;49.208;8.806;2022-09-12T08:29:31;7.47;;;6.83;;
2049;SDS011;8478;49.208;8.806;2022-09-12T08:31:57;7.90;;;7.30;;
2049;SDS011;8478;49.208;8.806;2022-09-12T08:34:23;7.67;;;7.07;;
2049;SDS011;8478;49.208;8.806;2022-09-12T08:36:50;8.13;;;7.53;;
2049;SDS011;8478;49.208;8.806;2022-09-12T08:39:18;8.40;;;7.80;;
2049;SDS011;8478;49.208;8.806;2022-09-12T08:41:48;8.73;;;8.03;;
2049;SDS011;8478;49.208;8.806;2022-09-12T08:47:52;7.73;;;7.03;;
2049;SDS011;8478;49.208;8.806;2022-09-12T08:52:57;7.20;;;6.70;;
2049;SDS011;8478;49.208;8.806;2022-09-12T08:58:29;8.07;;;7.47;;
2049;SDS011;8478;49.208;8.806;2022-09-12T09:01:45;7.60;;;6.90;;
2049;SDS011;8478;49.208;8.806;2022-09-12T09:09:37;9.17;;;8.23;;
2049;SDS011;8478;49.208;8.806;2022-09-12T09:17:57;8.20;;;7.50;;
2049;SDS011;8478;49.208;8.806;2022-09-12T09:20:35;7.53;;;6.93;;
2049;SDS011;8478;49.208;8.806;2022-09-12T09:23:24;7.20;;;6.70;;
2049;SDS011;8478;49.208;8.806;2022-09-12T09:31:22;7.40;;;6.80;;
2049;SDS011;8478;49.208;8.806;2022-09-12T09:33:51;7.80;;;7.30;;
2049;SDS011;8478;49.208;8.806;2022-09-12T09:36:20;6.93;;;6.43;;
2049;SDS011;8478;49.208;8.806;2022-09-12T09:39:05;8.27;;;7.70;;
2049;SDS011;8478;49.208;8.806;2022-09-12T09:44:35;8.20;;;7.50;;
2049;SDS011;8478;49.208;8.806;2022-09-12T09:47:01;8.30;;;7.70;;
2049;SDS011;8478;49.208;8.806;2022-09-12T09:49:27;7.70;;;7.10;;
2049;SDS011;8478;49.208;8.806;2022-09-12T09:51:56;7.30;;;6.77;;
2049;SDS011;8478;49.208;8.806;2022-09-12T09:54:30;7.67;;;7.07;;
2049;SDS011;8478;49.208;8.806;2022-09-12T10:05:48;7.30;;;6.70;;
2049;SDS011;8478;49.208;8.806;2022-09-12T10:08:21;7.57;;;6.97;;
2049;SDS011;8478;49.208;8.806;2022-09-12T10:11:36;6.57;;;6.17;;
2049;SDS011;8478;49.208;8.806;2022-09-12T10:18:55;6.80;;;6.30;;
2049;SDS011;8478;49.208;8.806;2022-09-12T10:21:35;6.87;;;6.37;;
2049;SDS011;8478;49.208;8.806;2022-09-12T10:26:51;6.77;;;6.27;;
2049;SDS011;8478;49.208;8.806;2022-09-12T10:31:57;6.30;;;5.90;;
2049;SDS011;8478;49.208;8.806;2022-09-12T10:34:28;6.60;;;6.10;;
2049;SDS011;8478;49.208;8.806;2022-09-12T10:37:00;6.10;;;5.70;;
2049;SDS011;8478;49.208;8.806;2022-09-12T10:39:30;6.37;;;5.97;;
2049;SDS011;8478;49.208;8.806;2022-09-12T10:41:58;6.60;;;6.10;;
2049;SDS011;8478;49.208;8.806;2022-09-12T10:44:26;6.70;;;5.93;;
2049;SDS011;8478;49.208;8.806;2022-09-12T10:46:54;6.40;;;6.00;;
2049;SDS011;8478;49.208;8.806;2022-09-12T10:49:28;5.63;;;5.23;;
2049;SDS011;8478;49.208;8.806;2022-09-12T10:51:56;6.27;;;5.67;;
2049;SDS011;8478;49.208;8.806;2022-09-12T10:54:36;5.33;;;5.00;;
2049;SDS011;8478;49.208;8.806;2022-09-12T11:07:42;5.97;;;5.57;;
2049;SDS011;8478;49.208;8.806;2022-09-12T11:21:31;6.40;;;5.93;;
2049;SDS011;8478;49.208;8.806;2022-09-12T11:26:46;5.77;;;5.40;;
2049;SDS011;8478;49.208;8.806;2022-09-12T11:29:46;6.57;;;6.17;;
2049;SDS011;8478;49.208;8.806;2022-09-12T11:45:49;6.20;;;5.80;;
2049;SDS011;8478;49.208;8.806;2022-09-12T11:48:26;6.20;;;5.80;;
2049;SDS011;8478;49.208;8.806;2022-09-12T11:50:53;5.70;;;5.30;;
2049;SDS011;8478;49.208;8.806;2022-09-12T11:53:23;5.87;;;5.57;;
2049;SDS011;8478;49.208;8.806;2022-09-12T11:55:58;6.43;;;6.03;;
2049;SDS011;8478;49.208;8.806;2022-09-12T11:58:30;6.07;;;5.57;;
2049;SDS011;8478;49.208;8.806;2022-09-12T12:00:57;5.70;;;5.30;;
2049;SDS011;8478;49.208;8.806;2022-09-12T12:03:43;5.57;;;5.27;;
2049;SDS011;8478;49.208;8.806;2022-09-12T12:06:11;6.10;;;5.60;;
2049;SDS011;8478;49.208;8.806;2022-09-12T12:09:08;5.47;;;5.17;;
2049;SDS011;8478;49.208;8.806;2022-09-12T12:11:41;5.30;;;4.90;;
2049;SDS011;8478;49.208;8.806;2022-09-12T12:14:16;5.70;;;5.20;;
2049;SDS011;8478;49.208;8.806;2022-09-12T12:16:45;5.30;;;5.00;;
2049;SDS011;8478;49.208;8.806;2022-09-12T12:21:40;5.57;;;5.17;;
2049;SDS011;8478;49.208;8.806;2022-09-12T12:26:54;5.50;;;5.20;;
2049;SDS011;8478;49.208;8.806;2022-09-12T12:32:30;5.50;;;5.10;;
2049;SDS011;8478;49.208;8.806;2022-09-12T12:34:45;5.37;;;4.97;;
2049;SDS011;8478;49.208;8.806;2022-09-12T12:42:09;6.13;;;5.70;;
2049;SDS011;8478;49.208;8.806;2022-09-12T12:45:02;4.80;;;4.50;;
2049;SDS011;8478;49.208;8.806;2022-09-12T12:47:31;5.53;;;5.03;;
2049;SDS011;8478;49.208;8.806;2022-09-12T12:50:10;4.60;;;4.30;;
2049;SDS011;8478;49.208;8.806;2022-09-12T12:52:49;5.70;;;5.30;;
2049;SDS011;8478;49.208;8.806;2022-09-12T12:55:17;5.37;;;5.07;;
2049;SDS011;8478;49.208;8.806;2022-09-12T13:00:25;4.80;;;4.50;;
2049;SDS011;8478;49.208;8.806;2022-09-12T13:05:45;5.27;;;4.83;;
2049;SDS011;8478;49.208;8.806;2022-09-12T13:15:54;5.50;;;5.10;;
2049;SDS011;8478;49.208;8.806;2022-09-12T13:18:24;4.83;;;4.53;;
2049;SDS011;8478;49.208;8.806;2022-09-12T13:21:06;4.83;;;4.43;;
2049;SDS011;8478;49.208;8.806;2022-09-12T13:23:37;4.93;;;4.63;;
2049;SDS011;8478;49.208;8.806;2022-09-12T13:26:09;4.63;;;4.33;;
2049;SDS011;8478;49.208;8.806;2022-09-12T13:28:36;4.40;;;4.10;;
2049;SDS011;8478;49.208;8.806;2022-09-12T13:31:08;4.47;;;4.10;;
2049;SDS011;8478;49.208;8.806;2022-09-12T13:33:40;4.03;;;3.83;;
2049;SDS011;8478;49.208;8.806;2022-09-12T13:44:52;3.90;;;3.60;;
2049;SDS011;8478;49.208;8.806;2022-09-12T13:47:30;4.03;;;3.53;;
2049;SDS011;8478;49.208;8.806;2022-09-12T13:49:59;4.17;;;3.87;;
2049;SDS011;8478;49.208;8.806;2022-09-12T13:52:28;3.77;;;3.53;;
2049;SDS011;8478;49.208;8.806;2022-09-12T13:54:57;4.03;;;3.73;;
2049;SDS011;8478;49.208;8.806;2022-09-12T13:57:28;3.23;;;3.03;;
2049;SDS011;8478;49.208;8.806;2022-09-12T14:00:02;3.63;;;3.33;;
2049;SDS011;8478;49.208;8.806;2022-09-12T14:02:33;3.13;;;2.90;;
2049;SDS011;8478;49.208;8.806;2022-09-12T14:04:59;3.10;;;2.90;;
2049;SDS011;8478;49.208;8.806;2022-09-12T14:07:50;3.60;;;3.40;;
2049;SDS011;8478;49.208;8.806;2022-09-12T14:10:23;3.43;;;3.23;;
2049;SDS011;8478;49.208;8.806;2022-09-12T14:12:58;3.30;;;3.10;;
2049;SDS011;8478;49.208;8.806;2022-09-12T14:15:28;3.30;;;3.10;;
2049;SDS011;8478;49.208;8.806;2022-09-12T14:17:57;3.20;;;3.00;;
2049;SDS011;8478;49.208;8.806;2022-09-12T14:20:26;3.27;;;3.07;;
2049;SDS011;8478;49.208;8.806;2022-09-12T14:23:00;3.03;;;2.83;;
2049;SDS011;8478;49.208;8.806;2022-09-12T14:25:57;3.27;;;3.07;;
2049;SDS011;8478;49.208;8.806;2022-09-12T14:28:26;3.20;;;3.00;;
2049;SDS011;8478;49.208;8.806;2022-09-12T14:31:05;3.40;;;3.20;;
2049;SDS011;8478;49.208;8.806;2022-09-12T14:38:41;3.03;;;2.83;;
2049;SDS011;8478;49.208;8.806;2022-09-12T14:41:09;3.47;;;3.20;;
2049;SDS011;8478;49.208;8.806;2022-09-12T14:43:41;3.03;;;2.83;;
2049;SDS011;8478;49.208;8.806;2022-09-12T14:46:16;3.17;;;2.97;;
2049;SDS011;8478;49.208;8.806;2022-09-12T14:48:48;3.70;;;3.50;;
2049;SDS011;8478;49.208;8.806;2022-09-12T14:51:25;2.90;;;2.70;;
2049;SDS011;8478;49.208;8.806;2022-09-12T14:54:00;3.00;;;2.80;;
2049;SDS011;8478;49.208;8.806;2022-09-12T14:56:41;3.60;;;3.30;;
2049;SDS011;8478;49.208;8.806;2022-09-12T14:59:29;2.97;;;2.77;;
2049;SDS011;8478;49.208;8.806;2022-09-12T15:04:46;3.40;;;3.20;;
2049;SDS011;8478;49.208;8.806;2022-09-12T15:07:23;3.30;;;3.10;;
2049;SDS011;8478;49.208;8.806;2022-09-12T15:09:58;3.20;;;3.00;;
2049;SDS011;8478;49.208;8.806;2022-09-12T15:12:25;3.47;;;3.27;;
2049;SDS011;8478;49.208;8.806;2022-09-12T15:14:51;3.60;;;3.17;;
2049;SDS011;8478;49.208;8.806;2022-09-12T15:17:19;3.77;;;3.50;;
2049;SDS011;8478;49.208;8.806;2022-09-12T15:19:45;2.87;;;2.67;;
2049;SDS011;8478;49.208;8.806;2022-09-12T15:22:11;3.37;;;3.17;;
2049;SDS011;8478;49.208;8.806;2022-09-12T15:24:37;3.97;;;3.10;;
2049;SDS011;8478;49.208;8.806;2022-09-12T15:27:10;2.93;;;2.73;;
2049;SDS011;8478;49.208;8.806;2022-09-12T15:29:36;3.10;;;2.80;;
2049;SDS011;8478;49.208;8.806;2022-09-12T15:32:02;3.13;;;2.93;;
2049;SDS011;8478;49.208;8.806;2022-09-12T15:34:30;3.03;;;2.83;;
2049;SDS011;8478;49.208;8.806;2022-09-12T15:36:56;3.53;;;3.23;;
2049;SDS011;8478;49.208;8.806;2022-09-12T15:39:21;3.60;;;3.30;;
2049;SDS011;8478;49.208;8.806;2022-09-12T15:41:47;3.03;;;2.83;;
2049;SDS011;8478;49.208;8.806;2022-09-12T15:44:13;3.40;;;3.20;;
2049;SDS011;8478;49.208;8.806;2022-09-12T15:46:39;3.63;;;3.33;;
2049;SDS011;8478;49.208;8.806;2022-09-12T15:49:04;3.33;;;3.13;;
2049;SDS011;8478;49.208;8.806;2022-09-12T15:51:31;3.00;;;2.80;;
2049;SDS011;8478;49.208;8.806;2022-09-12T15:53:57;5.30;;;3.30;;
2049;SDS011;8478;49.208;8.806;2022-09-12T15:56:24;3.90;;;3.60;;
2049;SDS011;8478;49.208;8.806;2022-09-12T15:58:49;3.80;;;3.37;;
2049;SDS011;8478;49.208;8.806;2022-09-12T16:01:16;3.53;;;3.33;;
2049;SDS011;8478;49.208;8.806;2022-09-12T16:03:43;3.00;;;2.80;;
2049;SDS011;8478;49.208;8.806;2022-09-12T16:06:10;3.50;;;3.30;;
2049;SDS011;8478;49.208;8.806;2022-09-12T16:08:36;3.93;;;3.63;;
2049;SDS011;8478;49.208;8.806;2022-09-12T16:11:11;14.53;;;4.80;;
2049;SDS011;8478;49.208;8.806;2022-09-12T16:13:43;77.17;;;13.70;;
2049;SDS011;8478;49.208;8.806;2022-09-12T16:16:09;64.93;;;13.77;;
2049;SDS011;8478;49.208;8.806;2022-09-12T16:18:35;19.67;;;5.37;;
2049;SDS011;8478;49.208;8.806;2022-09-12T16:21:02;7.93;;;4.43;;
2049;SDS011;8478;49.208;8.806;2022-09-12T16:23:28;4.90;;;4.40;;
2049;SDS011;8478;49.208;8.806;2022-09-12T16:25:58;6.03;;;5.37;;
2049;SDS011;8478;49.208;8.806;2022-09-12T16:28:25;6.47;;;5.70;;
2049;SDS011;8478;49.208;8.806;2022-09-12T16:30:58;4.90;;;4.50;;
2049;SDS011;8478;49.208;8.806;2022-09-12T16:33:26;9.10;;;4.57;;
2049;SDS011;8478;49.208;8.806;2022-09-12T16:35:52;4.07;;;3.63;;
2049;SDS011;8478;49.208;8.806;2022-09-12T16:38:25;4.10;;;3.47;;
2049;SDS011;8478;49.208;8.806;2022-09-12T16:40:50;3.80;;;3.50;;
2049;SDS011;8478;49.208;8.806;2022-09-12T16:43:16;4.67;;;4.20;;
2049;SDS011;8478;49.208;8.806;2022-09-12T16:45:42;5.37;;;4.90;;
2049;SDS011;8478;49.208;8.806;2022-09-12T16:48:08;5.30;;;4.90;;
2049;SDS011;8478;49.208;8.806;2022-09-12T16:50:34;16.50;;;6.67;;
2049;SDS011;8478;49.208;8.806;2022-09-12T16:53:00;5.47;;;4.40;;
2049;SDS011;8478;49.208;8.806;2022-09-12T16:55:25;4.67;;;4.27;;
2049;SDS011;8478;49.208;8.806;2022-09-12T16:57:52;4.30;;;3.90;;
2049;SDS011;8478;49.208;8.806;2022-09-12T17:00:19;6.60;;;4.03;;
2049;SDS011;8478;49.208;8.806;2022-09-12T17:02:44;10.53;;;4.67;;
2049;SDS011;8478;49.208;8.806;2022-09-12T17:05:11;4.40;;;4.00;;
2049;SDS011;8478;49.208;8.806;2022-09-12T17:07:39;5.20;;;3.80;;
2049;SDS011;8478;49.208;8.806;2022-09-12T17:10:06;5.13;;;3.83;;
2049;SDS011;8478;49.208;8.806;2022-09-12T17:12:32;11.60;;;4.13;;
2049;SDS011;8478;49.208;8.806;2022-09-12T17:14:58;3.73;;;3.37;;
2049;SDS011;8478;49.208;8.806;2022-09-12T17:17:24;3.00;;;2.80;;
2049;SDS011;8478;49.208;8.806;2022-09-12T17:19:50;4.00;;;3.23;;
2049;SDS011;8478;49.208;8.806;2022-09-12T17:22:16;107.83;;;16.10;;
2049;SDS011;8478;49.208;8.806;2022-09-12T17:24:41;35.37;;;8.53;;
2049;SDS011;8478;49.208;8.806;2022-09-12T17:27:07;19.13;;;6.83;;
2049;SDS011;8478;49.208;8.806;2022-09-12T17:29:33;12.27;;;5.00;;
2049;SDS011;8478;49.208;8.806;2022-09-12T17:32:00;7.10;;;3.70;;
2049;SDS011;8478;49.208;8.806;2022-09-12T17:34:27;10.30;;;4.60;;
2049;SDS011;8478;49.208;8.806;2022-09-12T17:36:52;30.70;;;7.23;;
2049;SDS011;8478;49.208;8.806;2022-09-12T17:39:18;16.00;;;5.97;;
2049;SDS011;8478;49.208;8.806;2022-09-12T17:41:44;25.70;;;7.43;;
2049;SDS011;8478;49.208;8.806;2022-09-12T17:44:10;20.23;;;6.00;;
2049;SDS011;8478;49.208;8.806;2022-09-12T17:46:37;19.37;;;5.50;;
2049;SDS011;8478;49.208;8.806;2022-09-12T17:49:05;21.93;;;6.07;;
2049;SDS011;8478;49.208;8.806;2022-09-12T17:51:33;20.77;;;6.50;;
2049;SDS011;8478;49.208;8.806;2022-09-12T17:54:06;11.00;;;5.43;;
2049;SDS011;8478;49.208;8.806;2022-09-12T17:56:35;16.47;;;5.80;;
2049;SDS011;8478;49.208;8.806;2022-09-12T17:59:02;12.70;;;5.70;;
2049;SDS011;8478;49.208;8.806;2022-09-12T18:01:29;7.97;;;4.00;;
2049;SDS011;8478;49.208;8.806;2022-09-12T18:04:14;8.23;;;5.30;;
2049;SDS011;8478;49.208;8.806;2022-09-12T18:06:40;12.80;;;5.80;;
2049;SDS011;8478;49.208;8.806;2022-09-12T18:09:12;10.33;;;4.73;;
2049;SDS011;8478;49.208;8.806;2022-09-12T18:11:38;11.03;;;4.40;;
2049;SDS011;8478;49.208;8.806;2022-09-12T18:14:04;9.83;;;4.10;;
2049;SDS011;8478;49.208;8.806;2022-09-12T18:16:29;7.70;;;4.00;;
2049;SDS011;8478;49.208;8.806;2022-09-12T18:18:57;9.33;;;5.00;;
2049;SDS011;8478;49.208;8.806;2022-09-12T18:21:25;5.93;;;4.20;;
2049;SDS011;8478;49.208;8.806;2022-09-12T18:23:53;7.33;;;4.40;;
2049;SDS011;8478;49.208;8.806;2022-09-12T18:26:20;4.33;;;3.60;;
2049;SDS011;8478;49.208;8.806;2022-09-12T18:28:46;5.63;;;3.70;;
2049;SDS011;8478;49.208;8.806;2022-09-12T18:31:16;5.80;;;4.33;;
2049;SDS011;8478;49.208;8.806;2022-09-12T18:33:43;5.20;;;3.73;;
2049;SDS011;8478;49.208;8.806;2022-09-12T18:36:10;4.87;;;3.50;;